Time;durP1;ratioP1;P1;durP2;ratioP2;P2;SDS_P1;SDS_P2;PMS_P1;PMS_P2;Temp;Humidity;BMP_temperature;BMP_pressure;BME280_temperature;BME280_humidity;BME280_pressure;Samples;Min_cycle;Max_cycle;Signal;HPM_P1;HPM_P2
2022/04/14 00:01:36;;;;;;;;;;;21.50;42.20;;;;;;5170586;27;20206;-61
2022/04/14 00:04:01;;;;;;;;;;;21.50;42.20;;;;;;5164968;27;19926;-62
2022/04/14 00:06:27;;;;;;;;;;;21.50;42.10;;;;;;5163005;27;19927;-58
2022/04/14 00:08:53;;;;;;;;;;;21.40;42.10;;;;;;5167074;27;19934;-59
2022/04/14 00:11:19;;;;;;;;;;;21.40;42.20;;;;;;5164746;27;19923;-61
2022/04/14 00:13:45;;;;;;;;;;;21.40;42.20;;;;;;5165515;27;19927;-59
2022/04/14 00:16:10;;;;;;;;;;;21.30;42.30;;;;;;5149689;27;19923;-58
2022/04/14 00:18:36;;;;;;;;;;;21.30;42.20;;;;;;5164832;27;20015;-60
2022/04/14 00:21:02;;;;;;;;;;;21.40;42.10;;;;;;5170173;27;19923;-59
2022/04/14 00:23:28;;;;;;;;;;;21.30;42.10;;;;;;5164763;27;20270;-58
2022/04/14 00:25:53;;;;;;;;;;;21.50;41.90;;;;;;5160609;27;19927;-60
2022/04/14 00:28:19;;;;;;;;;;;21.40;41.80;;;;;;5168663;27;19961;-59
2022/04/14 00:30:45;;;;;;;;;;;21.30;41.90;;;;;;5164659;27;19927;-61
2022/04/14 00:33:11;;;;;;;;;;;21.40;41.80;;;;;;5163468;27;19922;-62
2022/04/14 00:35:37;;;;;;;;;;;21.30;41.80;;;;;;5170136;27;20366;-57
2022/04/14 00:38:02;;;;;;;;;;;21.40;41.80;;;;;;5164588;27;20401;-60
2022/04/14 00:40:28;;;;;;;;;;;21.30;42.10;;;;;;5170114;27;19950;-60
2022/04/14 00:42:54;;;;;;;;;;;21.30;42.30;;;;;;5163850;27;20312;-60
2022/04/14 00:45:20;;;;;;;;;;;21.20;42.50;;;;;;5159856;27;19929;-60
2022/04/14 00:47:45;;;;;;;;;;;21.10;42.60;;;;;;5169807;27;19937;-58
2022/04/14 00:50:13;;;;;;;;;;;21.10;42.80;;;;;;5164259;27;19938;-59
2022/04/14 00:52:48;;;;;;;;;;;21.10;42.60;;;;;;5164250;27;20402;-59
2022/04/14 00:55:14;;;;;;;;;;;21.10;42.70;;;;;;5169564;27;20014;-59
2022/04/14 00:57:39;;;;;;;;;;;21.20;42.40;;;;;;5163821;27;20278;-59
2022/04/14 01:00:05;;;;;;;;;;;21.20;42.40;;;;;;5167462;27;19930;-57
2022/04/14 01:02:32;;;;;;;;;;;21.30;42.30;;;;;;5162437;27;19922;-60
2022/04/14 01:04:58;;;;;;;;;;;21.30;42.20;;;;;;5162551;27;19923;-61
2022/04/14 01:07:24;;;;;;;;;;;21.20;42.10;;;;;;5169343;27;20439;-61
2022/04/14 01:09:50;;;;;;;;;;;21.30;41.90;;;;;;5163760;27;20400;-59
2022/04/14 01:12:15;;;;;;;;;;;21.30;41.80;;;;;;5163768;27;20377;-57
2022/04/14 01:14:41;;;;;;;;;;;21.30;41.80;;;;;;5169287;27;21137;-58
2022/04/14 01:17:07;;;;;;;;;;;21.30;41.80;;;;;;5163829;27;20043;-60
2022/04/14 01:19:33;;;;;;;;;;;21.20;41.80;;;;;;5164747;27;19930;-59
2022/04/14 01:22:05;;;;;;;;;;;21.30;41.60;;;;;;5163584;27;20202;-59
2022/04/14 01:24:31;;;;;;;;;;;21.20;41.60;;;;;;5163827;27;19970;-60
2022/04/14 01:26:57;;;;;;;;;;;21.30;41.50;;;;;;5169301;27;19926;-60
2022/04/14 01:29:24;;;;;;;;;;;21.30;41.50;;;;;;5163536;27;19922;-59
2022/04/14 01:31:50;;;;;;;;;;;21.20;41.60;;;;;;5163657;27;20768;-60
2022/04/14 01:34:15;;;;;;;;;;;21.30;41.60;;;;;;5168986;27;19926;-58
2022/04/14 01:36:41;;;;;;;;;;;21.30;41.60;;;;;;5163503;27;20374;-61
2022/04/14 01:39:08;;;;;;;;;;;21.30;41.70;;;;;;5159562;27;20198;-59
2022/04/14 01:41:34;;;;;;;;;;;21.20;41.80;;;;;;5167464;27;19962;-61
2022/04/14 01:44:00;;;;;;;;;;;21.10;42.10;;;;;;5163283;27;20022;-59
2022/04/14 01:46:25;;;;;;;;;;;21.20;42.10;;;;;;5168866;27;20385;-59
2022/04/14 01:48:51;;;;;;;;;;;21.10;42.30;;;;;;5163364;27;20304;-57
2022/04/14 01:51:17;;;;;;;;;;;21.00;42.60;;;;;;5163410;27;20009;-58
2022/04/14 01:53:43;;;;;;;;;;;21.10;42.30;;;;;;5168668;27;19938;-56
2022/04/14 01:56:08;;;;;;;;;;;21.00;42.40;;;;;;5163351;27;19958;-57
2022/04/14 01:58:34;;;;;;;;;;;21.00;42.50;;;;;;5158253;27;20182;-57
2022/04/14 02:01:00;;;;;;;;;;;21.10;42.40;;;;;;5168601;27;19922;-59
2022/04/14 02:03:26;;;;;;;;;;;21.10;42.30;;;;;;5162964;27;19922;-59
2022/04/14 02:05:52;;;;;;;;;;;21.10;42.40;;;;;;5167226;27;19965;-56
2022/04/14 02:08:17;;;;;;;;;;;21.10;42.50;;;;;;5164580;27;19934;-59
2022/04/14 02:10:43;;;;;;;;;;;21.10;42.30;;;;;;5163100;27;19930;-60
2022/04/14 02:13:09;;;;;;;;;;;21.10;42.20;;;;;;5168245;27;20273;-56
2022/04/14 02:15:34;;;;;;;;;;;21.00;42.30;;;;;;5159585;27;19922;-57
2022/04/14 02:18:00;;;;;;;;;;;21.10;42.20;;;;;;5161336;27;19982;-53
2022/04/14 02:20:26;;;;;;;;;;;21.00;42.40;;;;;;5168378;27;19927;-60
2022/04/14 02:22:52;;;;;;;;;;;21.20;41.90;;;;;;5162656;27;19927;-54
2022/04/14 02:25:18;;;;;;;;;;;21.00;41.90;;;;;;5165226;27;20380;-58
2022/04/14 02:27:43;;;;;;;;;;;21.10;41.80;;;;;;5166164;27;19922;-60
2022/04/14 02:30:09;;;;;;;;;;;21.20;41.70;;;;;;5144108;27;19957;-58
2022/04/14 02:32:35;;;;;;;;;;;21.10;41.80;;;;;;5167974;27;19979;-60
2022/04/14 02:35:04;;;;;;;;;;;21.10;41.70;;;;;;5157575;27;20001;-56
2022/04/14 02:37:30;;;;;;;;;;;21.10;41.70;;;;;;5162504;27;20378;-56
2022/04/14 02:39:55;;;;;;;;;;;21.10;41.60;;;;;;5168080;27;20021;-60
2022/04/14 02:42:21;;;;;;;;;;;21.30;41.40;;;;;;5162314;27;20337;-58
2022/04/14 02:44:47;;;;;;;;;;;21.20;41.50;;;;;;5143735;27;20031;-59
2022/04/14 02:47:13;;;;;;;;;;;21.10;41.70;;;;;;5167928;27;19962;-59
2022/04/14 02:49:39;;;;;;;;;;;21.10;41.70;;;;;;5162480;27;19940;-59
2022/04/14 02:52:05;;;;;;;;;;;21.10;41.80;;;;;;5164768;27;20272;-58
2022/04/14 02:54:37;;;;;;;;;;;21.20;41.60;;;;;;5159814;27;19937;-60
2022/04/14 02:57:04;;;;;;;;;;;21.20;41.70;;;;;;5161616;27;19994;-60
2022/04/14 02:59:30;;;;;;;;;;;21.10;41.70;;;;;;5167957;27;19965;-59
2022/04/14 03:01:55;;;;;;;;;;;21.10;41.70;;;;;;5162361;27;19926;-59
2022/04/14 03:04:21;;;;;;;;;;;21.10;41.80;;;;;;5162447;27;20043;-58
2022/04/14 03:06:47;;;;;;;;;;;21.00;42.00;;;;;;5167766;27;20281;-60
2022/04/14 03:09:13;;;;;;;;;;;21.10;41.90;;;;;;5143509;27;19930;-59
2022/04/14 03:11:38;;;;;;;;;;;21.10;41.90;;;;;;5161915;27;19969;-56
2022/04/14 03:14:04;;;;;;;;;;;21.20;41.90;;;;;;5162428;27;19929;-59
2022/04/14 03:16:30;;;;;;;;;;;21.20;41.60;;;;;;5162266;27;20416;-58
2022/04/14 03:18:56;;;;;;;;;;;21.10;41.80;;;;;;5167715;27;19923;-58
2022/04/14 03:21:22;;;;;;;;;;;21.10;41.80;;;;;;5161804;27;19930;-60
2022/04/14 03:23:47;;;;;;;;;;;21.10;41.80;;;;;;5161955;27;20183;-54
2022/04/14 03:26:13;;;;;;;;;;;20.90;42.10;;;;;;5167562;27;19933;-57
2022/04/14 03:28:39;;;;;;;;;;;21.20;41.40;;;;;;5159984;27;20058;-56
2022/04/14 03:31:05;;;;;;;;;;;21.10;41.60;;;;;;5161775;27;19980;-58
2022/04/14 03:33:30;;;;;;;;;;;21.00;41.70;;;;;;5164818;27;19971;-60
2022/04/14 03:35:56;;;;;;;;;;;21.10;41.60;;;;;;5162055;27;20290;-59
2022/04/14 03:38:22;;;;;;;;;;;21.10;41.60;;;;;;5167359;27;20762;-53
2022/04/14 03:40:48;;;;;;;;;;;20.90;42.00;;;;;;5143234;27;19923;-60
2022/04/14 03:43:14;;;;;;;;;;;21.30;41.40;;;;;;5161973;27;19960;-56
2022/04/14 03:45:40;;;;;;;;;;;21.10;41.50;;;;;;5148532;27;19933;-54
2022/04/14 03:48:05;;;;;;;;;;;20.90;41.80;;;;;;5157627;27;19927;-56
2022/04/14 03:50:31;;;;;;;;;;;21.20;41.40;;;;;;5161285;27;19927;-57
2022/04/14 03:52:57;;;;;;;;;;;21.10;41.50;;;;;;5166945;27;19923;-59
2022/04/14 03:55:23;;;;;;;;;;;21.10;41.60;;;;;;5142324;27;20016;-59
2022/04/14 03:57:49;;;;;;;;;;;21.20;41.40;;;;;;5166992;27;20332;-60
2022/04/14 04:00:14;;;;;;;;;;;21.20;41.50;;;;;;5161663;27;19946;-47
2022/04/14 04:02:40;;;;;;;;;;;20.90;41.90;;;;;;5161482;27;19979;-61
2022/04/14 04:05:06;;;;;;;;;;;21.30;41.30;;;;;;5166132;27;19927;-59
2022/04/14 04:07:32;;;;;;;;;;;21.10;41.60;;;;;;5157681;27;20038;-57
2022/04/14 04:09:58;;;;;;;;;;;21.10;41.50;;;;;;5164966;27;20387;-60
2022/04/14 04:12:24;;;;;;;;;;;21.20;41.40;;;;;;5170257;27;19923;-56
2022/04/14 04:14:49;;;;;;;;;;;21.00;41.80;;;;;;5164927;27;20021;-59
2022/04/14 04:17:15;;;;;;;;;;;21.20;41.50;;;;;;5170207;27;20294;-60
2022/04/14 04:19:43;;;;;;;;;;;21.20;41.40;;;;;;5164831;27;20460;-57
2022/04/14 04:22:11;;;;;;;;;;;21.10;41.70;;;;;;5164647;27;19963;-60
2022/04/14 04:24:37;;;;;;;;;;;21.20;41.50;;;;;;5166106;27;20286;-50
2022/04/14 04:27:03;;;;;;;;;;;21.00;42.00;;;;;;5163263;27;19923;-59
2022/04/14 04:29:29;;;;;;;;;;;21.20;41.60;;;;;;5164468;27;20306;-59
2022/04/14 04:31:55;;;;;;;;;;;20.90;42.30;;;;;;5170086;27;19927;-59
2022/04/14 04:34:21;;;;;;;;;;;21.30;41.50;;;;;;5164556;27;20301;-60
2022/04/14 04:36:46;;;;;;;;;;;21.00;42.00;;;;;;5170140;27;19934;-49
2022/04/14 04:39:12;;;;;;;;;;;21.10;42.10;;;;;;5164856;27;20433;-60
2022/04/14 04:41:38;;;;;;;;;;;21.20;41.90;;;;;;5164706;27;19923;-60
2022/04/14 04:44:04;;;;;;;;;;;21.00;42.10;;;;;;5160352;27;20394;-54
2022/04/14 04:46:30;;;;;;;;;;;21.00;42.10;;;;;;5164258;27;19965;-59
2022/04/14 04:48:56;;;;;;;;;;;21.20;41.90;;;;;;5164490;27;19926;-58
2022/04/14 04:51:22;;;;;;;;;;;21.00;42.00;;;;;;5169934;27;19943;-54
2022/04/14 04:53:47;;;;;;;;;;;21.10;41.90;;;;;;5164293;27;19975;-58
2022/04/14 04:56:13;;;;;;;;;;;21.00;42.00;;;;;;5167550;27;19927;-57
2022/04/14 04:58:39;;;;;;;;;;;21.00;42.20;;;;;;5166878;27;20271;-57
2022/04/14 05:01:05;;;;;;;;;;;21.20;41.70;;;;;;5160571;27;19930;-56
2022/04/14 05:03:31;;;;;;;;;;;20.90;42.40;;;;;;5167926;27;19937;-57
2022/04/14 05:05:57;;;;;;;;;;;21.20;41.80;;;;;;5164214;27;19927;-55
2022/04/14 05:08:22;;;;;;;;;;;21.00;42.10;;;;;;5164086;27;19930;-54
2022/04/14 05:10:48;;;;;;;;;;;21.20;42.00;;;;;;5169442;27;19926;-59
2022/04/14 05:13:15;;;;;;;;;;;21.20;41.90;;;;;;5164258;27;19969;-56
2022/04/14 05:15:41;;;;;;;;;;;21.10;42.10;;;;;;5164375;27;20308;-57
2022/04/14 05:18:07;;;;;;;;;;;21.10;41.90;;;;;;5169076;27;19978;-52
2022/04/14 05:20:34;;;;;;;;;;;20.90;42.40;;;;;;5158721;27;19930;-58
2022/04/14 05:23:01;;;;;;;;;;;21.00;42.10;;;;;;5169308;27;19940;-48
2022/04/14 05:25:27;;;;;;;;;;;21.00;42.20;;;;;;5163685;27;19930;-59
2022/04/14 05:27:53;;;;;;;;;;;21.10;42.00;;;;;;5159716;27;19923;-58
2022/04/14 05:30:18;;;;;;;;;;;21.00;42.30;;;;;;5169278;27;20369;-59
2022/04/14 05:32:44;;;;;;;;;;;21.30;41.80;;;;;;5163678;27;19927;-52
2022/04/14 05:35:10;;;;;;;;;;;20.90;42.40;;;;;;5163572;27;19927;-57
2022/04/14 05:37:36;;;;;;;;;;;21.30;41.90;;;;;;5165762;27;20032;-51
2022/04/14 05:40:05;;;;;;;;;;;21.00;42.40;;;;;;5162010;27;19930;-59
2022/04/14 05:42:31;;;;;;;;;;;21.10;42.10;;;;;;5169041;27;20373;-48
2022/04/14 05:44:58;;;;;;;;;;;21.00;42.40;;;;;;5163620;27;19933;-61
2022/04/14 05:47:24;;;;;;;;;;;21.20;42.10;;;;;;5163596;27;20006;-48
2022/04/14 05:49:53;;;;;;;;;;;20.90;42.70;;;;;;5168909;27;19931;-57
2022/04/14 05:52:20;;;;;;;;;;;21.20;42.20;;;;;;5163432;27;19926;-60
2022/04/14 05:54:46;;;;;;;;;;;21.10;42.40;;;;;;5163432;27;20420;-59
2022/04/14 05:57:12;;;;;;;;;;;21.20;42.20;;;;;;5163481;27;19927;-57
2022/04/14 05:59:38;;;;;;;;;;;21.10;42.20;;;;;;5163231;27;19923;-57
2022/04/14 06:02:04;;;;;;;;;;;21.10;42.50;;;;;;5146874;27;19978;-59
2022/04/14 06:04:30;;;;;;;;;;;21.00;42.70;;;;;;5166962;27;19933;-58
2022/04/14 06:06:56;;;;;;;;;;;21.10;42.50;;;;;;5163114;27;19966;-60
2022/04/14 06:09:22;;;;;;;;;;;21.20;42.40;;;;;;5168313;27;19931;-56
2022/04/14 06:11:48;;;;;;;;;;;21.10;42.70;;;;;;5163171;27;19923;-58
2022/04/14 06:14:13;;;;;;;;;;;21.20;42.70;;;;;;5159699;27;20505;-58
2022/04/14 06:16:39;;;;;;;;;;;21.20;43.00;;;;;;5165984;27;19930;-57
2022/04/14 06:19:05;;;;;;;;;;;21.20;43.50;;;;;;5162850;27;19927;-58
2022/04/14 06:21:30;;;;;;;;;;;21.20;43.90;;;;;;5163191;27;19947;-56
2022/04/14 06:23:57;;;;;;;;;;;21.20;44.20;;;;;;5168512;27;20370;-59
2022/04/14 06:26:23;;;;;;;;;;;21.20;44.50;;;;;;5162981;27;19965;-58
2022/04/14 06:28:48;;;;;;;;;;;21.20;45.00;;;;;;5168462;27;19926;-59
2022/04/14 06:31:14;;;;;;;;;;;21.20;45.30;;;;;;5161765;27;19930;-58
2022/04/14 06:33:40;;;;;;;;;;;21.30;45.60;;;;;;5157456;27;20491;-58
2022/04/14 06:36:06;;;;;;;;;;;21.20;46.40;;;;;;5167715;27;19923;-55
2022/04/14 06:38:32;;;;;;;;;;;21.30;46.60;;;;;;5162538;27;20363;-56
2022/04/14 06:40:57;;;;;;;;;;;21.30;46.80;;;;;;5162440;27;19930;-58
2022/04/14 06:43:24;;;;;;;;;;;21.30;46.60;;;;;;5168047;27;20274;-59
2022/04/14 06:45:50;;;;;;;;;;;21.40;46.40;;;;;;5162413;27;19927;-59
2022/04/14 06:48:16;;;;;;;;;;;21.50;46.30;;;;;;5149539;27;20362;-61
2022/04/14 06:50:42;;;;;;;;;;;21.50;46.30;;;;;;5160366;27;20017;-59
2022/04/14 06:53:08;;;;;;;;;;;21.40;46.80;;;;;;5158766;27;19922;-61
2022/04/14 06:55:35;;;;;;;;;;;21.40;47.00;;;;;;5167900;27;19991;-60
2022/04/14 06:58:01;;;;;;;;;;;21.40;47.00;;;;;;5162136;27;19923;-59
2022/04/14 07:00:27;;;;;;;;;;;21.50;46.70;;;;;;5162139;27;20504;-60
2022/04/14 07:02:53;;;;;;;;;;;21.60;46.50;;;;;;5149272;27;19970;-60
2022/04/14 07:05:19;;;;;;;;;;;21.70;46.40;;;;;;5162237;27;20403;-60
2022/04/14 07:07:45;;;;;;;;;;;21.80;46.30;;;;;;5167353;27;19923;-58
2022/04/14 07:10:12;;;;;;;;;;;21.60;46.60;;;;;;5158246;27;19930;-57
2022/04/14 07:12:38;;;;;;;;;;;21.50;46.80;;;;;;5161342;27;19922;-59
2022/04/14 07:15:04;;;;;;;;;;;21.50;46.90;;;;;;5167733;27;19923;-59
2022/04/14 07:17:30;;;;;;;;;;;21.60;46.80;;;;;;5162036;27;19929;-59
2022/04/14 07:19:57;;;;;;;;;;;21.60;46.70;;;;;;5161988;27;19927;-60
2022/04/14 07:22:23;;;;;;;;;;;21.70;46.70;;;;;;5167506;27;19929;-58
2022/04/14 07:24:49;;;;;;;;;;;21.80;46.20;;;;;;5143329;27;20426;-60
2022/04/14 07:27:17;;;;;;;;;;;21.80;46.10;;;;;;5162748;27;19937;-59
2022/04/14 07:29:44;;;;;;;;;;;21.80;46.20;;;;;;5142775;27;20388;-57
2022/04/14 07:32:09;;;;;;;;;;;21.80;46.30;;;;;;5161959;27;20361;-57
2022/04/14 07:34:35;;;;;;;;;;;21.80;46.30;;;;;;5167171;27;20006;-59
2022/04/14 07:37:01;;;;;;;;;;;21.80;46.40;;;;;;5161507;27;19923;-58
2022/04/14 07:39:27;;;;;;;;;;;21.80;46.20;;;;;;5161684;27;19933;-60
2022/04/14 07:41:53;;;;;;;;;;;21.80;46.40;;;;;;5168389;27;19926;-60
2022/04/14 07:44:20;;;;;;;;;;;21.80;46.30;;;;;;5165397;27;19926;-60
2022/04/14 07:46:45;;;;;;;;;;;21.80;46.50;;;;;;5160988;27;20021;-58
2022/04/14 07:49:11;;;;;;;;;;;21.80;46.40;;;;;;5169039;27;19930;-61
2022/04/14 07:51:37;;;;;;;;;;;21.80;46.60;;;;;;5165269;27;19922;-59
2022/04/14 07:54:03;;;;;;;;;;;21.80;46.70;;;;;;5170375;27;19971;-57
2022/04/14 07:56:29;;;;;;;;;;;21.80;46.50;;;;;;5164976;27;19930;-59
2022/04/14 07:58:54;;;;;;;;;;;21.80;46.50;;;;;;5164945;27;20054;-56
2022/04/14 08:01:20;;;;;;;;;;;21.90;46.50;;;;;;5151682;27;21449;-56
2022/04/14 08:03:47;;;;;;;;;;;21.90;46.60;;;;;;5164779;27;19922;-59
2022/04/14 08:06:13;;;;;;;;;;;21.80;46.70;;;;;;5159214;27;19949;-58
2022/04/14 08:08:39;;;;;;;;;;;21.80;46.70;;;;;;5170095;27;19929;-60
2022/04/14 08:11:05;;;;;;;;;;;21.80;46.70;;;;;;5164521;27;20316;-59
2022/04/14 08:13:35;;;;;;;;;;;21.80;46.90;;;;;;5170141;27;20382;-59
2022/04/14 08:16:05;;;;;;;;;;;21.80;46.50;;;;;;5165753;27;20328;-58
2022/04/14 08:18:32;;;;;;;;;;;21.90;46.40;;;;;;5164748;27;19971;-58
2022/04/14 08:20:59;;;;;;;;;;;21.80;46.60;;;;;;5170281;27;20433;-59
2022/04/14 08:23:25;;;;;;;;;;;22.00;46.50;;;;;;5160231;27;19926;-58
2022/04/14 08:25:50;;;;;;;;;;;22.00;46.30;;;;;;5162747;27;19922;-59
2022/04/14 08:28:16;;;;;;;;;;;22.00;46.40;;;;;;5169814;27;19923;-59
2022/04/14 08:30:42;;;;;;;;;;;22.00;46.50;;;;;;5164289;27;20366;-59
2022/04/14 08:33:08;;;;;;;;;;;22.10;46.40;;;;;;5164560;27;20277;-59
2022/04/14 08:35:34;;;;;;;;;;;22.10;46.50;;;;;;5169834;27;19954;-58
2022/04/14 08:38:06;;;;;;;;;;;22.00;46.50;;;;;;5164156;27;20360;-59
2022/04/14 08:40:37;;;;;;;;;;;22.10;46.40;;;;;;5169602;27;19937;-55
2022/04/14 08:43:03;;;;;;;;;;;22.00;46.60;;;;;;5159459;27;19923;-57
2022/04/14 08:45:30;;;;;;;;;;;22.10;46.40;;;;;;5164107;27;19922;-59
2022/04/14 08:47:55;;;;;;;;;;;22.20;46.00;;;;;;5169696;27;19927;-58
2022/04/14 08:50:24;;;;;;;;;;;22.20;46.10;;;;;;5164053;27;20223;-58
2022/04/14 08:52:51;;;;;;;;;;;22.10;46.20;;;;;;5163531;27;19966;-60
2022/04/14 08:55:16;;;;;;;;;;;22.20;46.10;;;;;;5168818;27;20046;-58
2022/04/14 08:57:42;;;;;;;;;;;22.20;46.00;;;;;;5163940;27;19923;-60
2022/04/14 09:00:09;;;;;;;;;;;22.30;45.90;;;;;;5161746;27;19931;-58
2022/04/14 09:02:35;;;;;;;;;;;22.30;45.90;;;;;;5166340;27;19930;-60
2022/04/14 09:05:01;;;;;;;;;;;22.20;45.90;;;;;;5163928;27;20270;-60
2022/04/14 09:07:27;;;;;;;;;;;22.10;46.00;;;;;;5169389;27;19927;-58
2022/04/14 09:09:53;;;;;;;;;;;22.20;45.80;;;;;;5163885;27;20384;-59
2022/04/14 09:12:19;;;;;;;;;;;22.30;45.70;;;;;;5164011;27;19929;-58
2022/04/14 09:14:45;;;;;;;;;;;22.30;45.60;;;;;;5169510;27;20365;-59
2022/04/14 09:17:11;;;;;;;;;;;22.30;45.70;;;;;;5163441;27;20034;-56
2022/04/14 09:19:37;;;;;;;;;;;22.30;45.60;;;;;;5157663;27;19927;-56
2022/04/14 09:22:03;;;;;;;;;;;22.20;45.90;;;;;;5169027;27;19948;-58
2022/04/14 09:24:39;;;;;;;;;;;22.20;45.90;;;;;;5163506;27;19923;-60
2022/04/14 09:27:05;;;;;;;;;;;22.30;45.90;;;;;;5169399;27;19923;-55
2022/04/14 09:29:31;;;;;;;;;;;22.30;45.80;;;;;;5159861;27;19970;-58
2022/04/14 09:31:57;;;;;;;;;;;22.30;45.60;;;;;;5163589;27;19927;-59
2022/04/14 09:34:41;;;;;;;;;;;22.40;45.40;;;;;;5168656;27;19923;-59
2022/04/14 09:37:11;;;;;;;;;;;22.30;45.30;;;;;;5159154;27;19933;-59
2022/04/14 09:39:56;;;;;;;;;;;22.40;44.90;;;;;;5162376;27;19922;-58
2022/04/14 09:42:25;;;;;;;;;;;22.40;44.90;;;;;;5168943;27;20013;-58
2022/04/14 09:44:51;;;;;;;;;;;22.40;45.20;;;;;;5163477;27;19926;-60
2022/04/14 09:47:23;;;;;;;;;;;22.40;44.90;;;;;;5163047;27;19949;-60
2022/04/14 09:49:49;;;;;;;;;;;22.40;45.00;;;;;;5168600;27;19923;-60
2022/04/14 09:52:15;;;;;;;;;;;22.40;44.90;;;;;;5163295;27;20401;-61
2022/04/14 09:54:41;;;;;;;;;;;22.50;44.80;;;;;;5160208;27;19949;-57
2022/04/14 09:57:09;;;;;;;;;;;22.40;45.20;;;;;;5165885;27;20418;-60
2022/04/14 09:59:37;;;;;;;;;;;21.40;47.10;;;;;;5163006;27;19926;-60
2022/04/14 10:02:13;;;;;;;;;;;21.30;48.10;;;;;;5146836;27;19978;-56
2022/04/14 10:04:48;;;;;;;;;;;21.50;48.90;;;;;;5168525;27;19932;-60
2022/04/14 10:07:17;;;;;;;;;;;21.70;48.30;;;;;;5162979;27;19983;-59
2022/04/14 10:09:43;;;;;;;;;;;21.80;47.90;;;;;;5167521;27;19967;-58
2022/04/14 10:12:15;;;;;;;;;;;21.70;48.00;;;;;;5145880;27;20365;-58
2022/04/14 10:14:41;;;;;;;;;;;21.70;47.80;;;;;;5156995;27;19922;-60
2022/04/14 10:17:07;;;;;;;;;;;21.70;47.80;;;;;;5168101;27;19922;-60
2022/04/14 10:19:33;;;;;;;;;;;21.70;47.90;;;;;;5162844;27;19930;-60
2022/04/14 10:21:59;;;;;;;;;;;21.70;47.90;;;;;;5143308;27;20030;-59
2022/04/14 10:24:25;;;;;;;;;;;21.70;48.00;;;;;;5168238;27;19929;-60
2022/04/14 10:26:52;;;;;;;;;;;21.70;47.90;;;;;;5162739;27;20021;-59
2022/04/14 10:29:18;;;;;;;;;;;21.80;47.80;;;;;;5162479;27;19933;-60
2022/04/14 10:31:43;;;;;;;;;;;21.60;47.80;;;;;;5164593;27;20047;-58
2022/04/14 10:34:10;;;;;;;;;;;21.70;47.50;;;;;;5141767;27;19927;-59
2022/04/14 10:36:38;;;;;;;;;;;21.60;47.70;;;;;;5167068;27;21294;-60
2022/04/14 10:39:04;;;;;;;;;;;21.70;47.50;;;;;;5162374;27;19934;-59
2022/04/14 10:41:31;;;;;;;;;;;21.60;47.70;;;;;;5162237;27;19926;-60
2022/04/14 10:44:00;;;;;;;;;;;21.70;47.60;;;;;;5168020;27;19922;-60
2022/04/14 10:46:33;;;;;;;;;;;21.70;47.60;;;;;;5162453;27;19931;-60
2022/04/14 10:49:14;;;;;;;;;;;21.60;47.50;;;;;;5162645;27;19947;-57
2022/04/14 10:51:40;;;;;;;;;;;21.60;47.50;;;;;;5162592;27;19933;-59
2022/04/14 10:54:07;;;;;;;;;;;21.70;47.30;;;;;;5161896;27;19923;-58
2022/04/14 10:56:45;;;;;;;;;;;21.60;47.30;;;;;;5162146;27;20089;-59
2022/04/14 10:59:11;;;;;;;;;;;21.70;47.20;;;;;;5167713;27;19970;-60
2022/04/14 11:01:57;;;;;;;;;;;21.60;47.30;;;;;;5143680;27;19930;-59
2022/04/14 11:04:26;;;;;;;;;;;21.70;47.20;;;;;;5162240;27;20016;-59
2022/04/14 11:06:58;;;;;;;;;;;21.70;46.90;;;;;;5167560;27;20323;-59
2022/04/14 11:09:43;;;;;;;;;;;21.70;46.90;;;;;;5157069;27;20388;-59
2022/04/14 11:12:09;;;;;;;;;;;21.70;47.00;;;;;;5161618;27;19927;-59
2022/04/14 11:14:35;;;;;;;;;;;21.70;46.80;;;;;;5167415;27;20396;-59
2022/04/14 11:17:03;;;;;;;;;;;21.70;46.80;;;;;;5163397;27;19927;-59
2022/04/14 11:19:29;;;;;;;;;;;21.80;46.60;;;;;;5168200;27;19926;-59
2022/04/14 11:21:58;;;;;;;;;;;21.70;46.70;;;;;;5169568;27;20007;-56
2022/04/14 11:24:36;;;;;;;;;;;21.70;46.70;;;;;;5165706;27;19923;-58
2022/04/14 11:27:17;;;;;;;;;;;21.70;46.40;;;;;;5167060;27;19933;-59
2022/04/14 11:29:44;;;;;;;;;;;21.60;46.30;;;;;;5169270;27;20406;-60
2022/04/14 11:32:10;;;;;;;;;;;21.00;45.80;;;;;;5165659;27;19922;-59
2022/04/14 11:34:36;;;;;;;;;;;20.90;45.10;;;;;;5170818;27;19930;-58
2022/04/14 11:37:02;;;;;;;;;;;20.90;47.20;;;;;;5165693;27;20358;-58
2022/04/14 11:39:28;;;;;;;;;;;21.30;47.60;;;;;;5144740;27;20022;-59
2022/04/14 11:41:54;;;;;;;;;;;21.40;47.60;;;;;;5171043;27;19996;-59
2022/04/14 11:44:21;;;;;;;;;;;21.50;47.60;;;;;;5165197;27;20374;-58
2022/04/14 11:46:50;;;;;;;;;;;21.50;48.00;;;;;;5160311;27;20464;-59
2022/04/14 11:49:21;;;;;;;;;;;21.50;48.10;;;;;;5170796;27;20394;-59
2022/04/14 11:51:47;;;;;;;;;;;21.50;48.30;;;;;;5147376;27;19933;-59
2022/04/14 11:54:13;;;;;;;;;;;21.50;48.00;;;;;;5169958;27;19929;-59
2022/04/14 11:56:39;;;;;;;;;;;21.70;47.50;;;;;;5146853;27;19927;-59
2022/04/14 11:59:08;;;;;;;;;;;21.70;47.40;;;;;;5165077;27;19991;-60
2022/04/14 12:01:34;;;;;;;;;;;21.80;47.10;;;;;;5153076;27;19927;-59
2022/04/14 12:04:00;;;;;;;;;;;21.80;46.90;;;;;;5140283;27;20964;-59
2022/04/14 12:06:26;;;;;;;;;;;21.80;46.90;;;;;;5146625;27;19955;-59
2022/04/14 12:08:52;;;;;;;;;;;21.80;47.10;;;;;;5169864;27;19923;-59
2022/04/14 12:11:20;;;;;;;;;;;21.70;47.70;;;;;;5165101;27;19922;-59
2022/04/14 12:13:45;;;;;;;;;;;21.70;47.70;;;;;;5164885;27;21185;-56
2022/04/14 12:16:11;;;;;;;;;;;21.80;47.30;;;;;;5170356;27;19930;-57
2022/04/14 12:18:38;;;;;;;;;;;21.80;47.10;;;;;;5165122;27;19965;-59
2022/04/14 12:21:06;;;;;;;;;;;21.80;47.10;;;;;;5170040;27;19926;-59
2022/04/14 12:23:33;;;;;;;;;;;21.90;47.00;;;;;;5159736;27;20381;-58
2022/04/14 12:25:59;;;;;;;;;;;21.90;47.00;;;;;;5164619;27;19937;-58
2022/04/14 12:28:25;;;;;;;;;;;21.80;47.40;;;;;;5168923;27;19923;-56
2022/04/14 12:30:51;;;;;;;;;;;21.80;47.80;;;;;;5165002;27;19923;-54
2022/04/14 12:33:23;;;;;;;;;;;21.80;47.80;;;;;;5164859;27;19930;-57
2022/04/14 12:35:49;;;;;;;;;;;21.90;47.40;;;;;;5170112;27;19927;-58
2022/04/14 12:38:15;;;;;;;;;;;21.90;47.20;;;;;;5145643;27;19932;-57
2022/04/14 12:40:56;;;;;;;;;;;21.90;47.20;;;;;;5165523;27;19970;-56
2022/04/14 12:43:23;;;;;;;;;;;22.00;47.10;;;;;;5151255;27;19930;-55
2022/04/14 12:45:49;;;;;;;;;;;22.00;47.00;;;;;;5143625;27;19927;-58
2022/04/14 12:48:35;;;;;;;;;;;22.00;47.20;;;;;;5149019;27;20365;-58
2022/04/14 12:51:00;;;;;;;;;;;21.90;47.60;;;;;;5147979;27;20305;-57
2022/04/14 12:53:26;;;;;;;;;;;21.80;48.20;;;;;;5143392;27;19930;-56
2022/04/14 12:56:11;;;;;;;;;;;21.80;47.90;;;;;;5148814;27;19976;-58
2022/04/14 12:58:36;;;;;;;;;;;21.90;47.70;;;;;;5141696;27;20398;-55
2022/04/14 13:01:06;;;;;;;;;;;22.00;47.40;;;;;;5141035;27;19934;-56
2022/04/14 13:03:43;;;;;;;;;;;22.00;47.30;;;;;;5148692;27;20237;-57
2022/04/14 13:06:18;;;;;;;;;;;22.00;47.40;;;;;;5143457;27;19933;-56
2022/04/14 13:08:44;;;;;;;;;;;22.00;47.40;;;;;;5143463;27;19923;-55
2022/04/14 13:11:17;;;;;;;;;;;21.90;47.80;;;;;;5148682;27;19923;-55
2022/04/14 13:13:43;;;;;;;;;;;21.90;48.20;;;;;;5124793;27;19927;-54
2022/04/14 13:16:08;;;;;;;;;;;21.90;48.10;;;;;;5143462;27;19976;-56
2022/04/14 13:18:35;;;;;;;;;;;22.00;48.00;;;;;;5143007;27;19927;-56
2022/04/14 13:21:01;;;;;;;;;;;22.00;47.70;;;;;;5142912;27;20418;-56
2022/04/14 13:23:27;;;;;;;;;;;22.00;47.70;;;;;;5123087;27;19938;-55
2022/04/14 13:25:53;;;;;;;;;;;22.00;47.80;;;;;;5148222;27;20386;-56
2022/04/14 13:28:18;;;;;;;;;;;20.50;51.10;;;;;;5143083;27;20013;-52
2022/04/14 13:30:44;;;;;;;;;;;20.70;52.40;;;;;;5148492;27;19927;-51
2022/04/14 13:33:10;;;;;;;;;;;21.40;50.00;;;;;;5124840;27;19923;-54
2022/04/14 13:35:36;;;;;;;;;;;21.40;49.20;;;;;;5139553;27;19926;-51
2022/04/14 13:38:02;;;;;;;;;;;21.20;48.20;;;;;;5146185;27;19933;-52
2022/04/14 13:40:27;;;;;;;;;;;21.10;47.10;;;;;;5142675;27;19923;-52
2022/04/14 13:42:54;;;;;;;;;;;21.10;47.70;;;;;;5143036;27;19945;-52
2022/04/14 13:45:21;;;;;;;;;;;21.30;49.40;;;;;;5148388;27;19971;-49
2022/04/14 13:47:47;;;;;;;;;;;21.50;49.70;;;;;;5143048;27;19927;-49
2022/04/14 13:50:13;;;;;;;;;;;21.60;49.40;;;;;;5148361;27;20072;-53
2022/04/14 13:52:39;;;;;;;;;;;21.70;49.10;;;;;;5142685;27;19971;-54
2022/04/14 13:55:05;;;;;;;;;;;21.80;49.10;;;;;;5119051;27;20375;-52
2022/04/14 13:57:30;;;;;;;;;;;21.90;48.80;;;;;;5127833;27;19930;-52
2022/04/14 13:59:56;;;;;;;;;;;21.80;48.60;;;;;;5142660;27;19926;-49
2022/04/14 14:02:22;;;;;;;;;;;21.80;48.40;;;;;;5124446;27;19941;-52
2022/04/14 14:04:48;;;;;;;;;;;21.90;48.30;;;;;;5148008;27;19947;-51
2022/04/14 14:07:14;;;;;;;;;;;21.80;48.50;;;;;;5142981;27;20402;-53
2022/04/14 14:09:39;;;;;;;;;;;21.80;48.90;;;;;;5147858;27;19923;-54
2022/04/14 14:12:06;;;;;;;;;;;21.80;49.30;;;;;;5139481;27;19979;-52
2022/04/14 14:14:32;;;;;;;;;;;21.80;49.00;;;;;;5140186;27;19926;-50